Aeroporto :
LOGIN :

Iscrizione | Disclaimer

   EN    FR    IT 

 










Sommario :    VFR   VFR Marginale   IFR   IFR Intensivo   IFR Molto Intensivo
Visibilità : 
Base nubi : 
>= 8 km
>= 3000ft
5 / 8 km
1000 / 3000 ft
1500m / 5 km
500 / 1000 ft
800 / 1500m
200 / 500 ft
< 800m
< 200 ft
Simboli :   Temporali  Nebbia  Neve Forte  Precipitazioni Forti  Vento > 20 kt
SIGMETs :   Varie  Temporali  Ghiacco  Turbolenza  Onda orograficha  Ceneri Vulcaniche






- Altitudine del aeroporto : 659 ft
- Codice IATA : LGG


EBLG - Liège

ULTIMO METAR :
  • 280720Z 05012KT CAVOK 13/06 Q1033 NOSIG

METARs OBSOLETI :
  • 280650Z 04011KT CAVOK 12/06 Q1033 NOSIG
  • 280620Z 05011KT CAVOK 11/06 Q1033 NOSIG
  • 280550Z 05010KT CAVOK 11/06 Q1033 NOSIG
  • 280520Z 04010KT CAVOK 10/05 Q1033 NOSIG
  • 280450Z 04009KT CAVOK 10/05 Q1033 NOSIG

TAF TAF EBLG
Valido dal 28 a 06 ore il 29 a 12 ore UTC


280500Z 2806/2912 05011KT CAVOK



MetMap, La meteo Aeronautica in un colpo d'occhio ! - Copyright ORBIFLY Dicembre 2007 - Disclaimer

ORBIFLY MET'MAP TEAM :

Programmazione e sviluppo : Alexandra Zaïnal
Concezione : Baudouin d'Aumeries
Aiuto per la programmazione : Marc-Olivier Méhu
Supporto tecnico e logistico : Manuel Goepfert
Aiuto per la traduzione : Arnaldo La Scala

Contatto : metmap@orbifly.com




FONTI E CREDITI :

   NOAA